الصفحة الرئيسية
METAR-TAF:

METAR-TAF

مطار :

نيفيس, أنتيغوا وبربودا

دائرة عرض: 17-12N, خط طول: 062-35W, ارتفاع: 17 متر

مراقبة الطقس الحالي

تاريخ ووقت الإصدار 11ساعات و 6 دقيقة قبل الساعة 21:00UTC
ريح 12 عقدة من الشرق/الشمال الشرقي
درجة الحرارة 30°درجة مئوية
الرطوبة 79%
ضغط 1014 hPa
الرؤية 10 كم أو أكثر
غيوم مفككة على ارتفاع 1600 قدم

METAR: TKPN 172100Z 06012KT 9999 BKN016 30/26 Q1014

زمن: 04:06 (08:06 UTC)

توقعات

تاريخ ووقت الإصدار 15ساعات و 6 دقيقة قبل الساعة 17:00UTC
التوقعات صالحة من17 الساعة 18 UTC إلى 18 الساعة 18 UTC
ريح 10 عقدة من الشرق
الرؤية 10 كم أو أكثر
غيوم متفرقة على ارتفاع 2000 قدم

TAF: TKPN 171700Z 1718/1818 10010KT 9999 SCT020

أرصاد الطقس والتوقعات من أكثر من 4000 مطار (تقارير الطقس للمطار METAR والتنبؤ بالطقس بالمطارTAF).

المحطات المتاحة هي النقط الصفراء والحمراء على الخريطة.

حرك المؤشر فوق النقطة لمعرفة اسم المحطة.

ثم انقر لمعرفة أرصاد وتوقعات الطقس.

لتغيير الخارطة: اضغط على الأزرار الخضراء مع رمز الصليب الأسود للتكبير. على الزر الأخضر مع شرطة للتصغير، أو على الأسهم الخضراء للخرائط المجاورة.


METAR-TAF: